Time;durP1;ratioP1;P1;durP2;ratioP2;P2;SDS_P1;SDS_P2;PMS_P1;PMS_P2;Temp;Humidity;BMP_temperature;BMP_pressure;BME280_temperature;BME280_humidity;BME280_pressure;Samples;Min_cycle;Max_cycle;Signal;HPM_P1;HPM_P2
2021/01/06 00:02:02;;;;;;;2.83;2.57;;;;;;;6.83;58.55;101783.28;6106731;29;20236;-68
2021/01/06 00:05:25;;;;;;;4.13;2.57;;;;;;;6.83;58.57;101778.09;6109382;29;20319;-68
2021/01/06 00:08:45;;;;;;;4.63;2.57;;;;;;;6.89;58.50;101778.22;6108128;29;20228;-69
2021/01/06 00:12:07;;;;;;;3.33;3.03;;;;;;;6.70;58.81;101778.66;6105926;29;20660;-68
2021/01/06 00:15:31;;;;;;;3.80;3.17;;;;;;;6.57;58.44;101780.13;6107713;29;20240;-68
2021/01/06 00:18:53;;;;;;;3.00;2.70;;;;;;;6.68;58.79;101776.03;6107191;29;20228;-68
2021/01/06 00:22:13;;;;;;;2.87;2.30;;;;;;;6.77;58.60;101777.09;6104842;29;20243;-67
2021/01/06 00:25:35;;;;;;;4.23;2.63;;;;;;;6.90;58.33;101773.91;6108534;29;20251;-68
2021/01/06 00:28:56;;;;;;;4.60;3.30;;;;;;;6.84;57.93;101773.78;6368204;23;20616;-68
2021/01/06 00:32:19;;;;;;;3.63;3.00;;;;;;;6.81;57.96;101763.38;6117849;29;20236;-68
2021/01/06 00:35:40;;;;;;;2.97;2.67;;;;;;;6.55;58.38;101767.97;6115850;28;20235;-68
2021/01/06 00:39:01;;;;;;;3.07;2.77;;;;;;;6.56;58.44;101761.97;6115905;29;20235;-68
2021/01/06 00:42:21;;;;;;;3.13;2.80;;;;;;;6.56;58.57;101762.84;6116759;29;20227;-68
2021/01/06 00:45:43;;;;;;;4.23;2.53;;;;;;;6.61;58.47;101765.50;6125268;28;20244;-67
2021/01/06 00:49:04;;;;;;;2.53;2.33;;;;;;;6.67;58.23;101757.91;6103268;29;20236;-68
2021/01/06 00:52:26;;;;;;;3.67;3.27;;;;;;;6.46;58.27;101760.88;6108384;29;20243;-68
2021/01/06 00:55:48;;;;;;;4.00;3.00;;;;;;;6.64;58.17;101755.25;6112826;29;20278;-68
2021/01/06 00:59:11;;;;;;;9.27;2.87;;;;;;;6.65;58.21;101747.50;6119703;28;20235;-68
2021/01/06 01:02:32;;;;;;;3.40;3.10;;;;;;;6.50;58.35;101736.81;6106663;29;20232;-68
2021/01/06 01:05:53;;;;;;;4.20;3.20;;;;;;;6.59;58.34;101742.22;6106676;29;20232;-68
2021/01/06 01:09:14;;;;;;;4.40;3.00;;;;;;;6.57;57.97;101751.66;6119468;28;20251;-68
2021/01/06 01:12:34;;;;;;;2.40;2.20;;;;;;;6.56;58.13;101746.44;6119497;29;20224;-67
2021/01/06 01:15:57;;;;;;;4.13;3.43;;;;;;;6.60;58.07;101743.94;6114704;28;20255;-68
2021/01/06 01:19:18;;;;;;;5.83;3.37;;;;;;;6.53;58.22;101743.78;6134014;28;20613;-67
2021/01/06 01:22:38;;;;;;;3.43;3.10;;;;;;;6.60;58.22;101743.06;6127917;28;20235;-68
2021/01/06 01:26:01;;;;;;;3.53;3.00;;;;;;;6.49;58.06;101738.53;6121056;29;20265;-68
2021/01/06 01:29:21;;;;;;;2.97;2.47;;;;;;;6.55;58.11;101734.31;6111631;29;20521;-67
2021/01/06 01:32:43;;;;;;;3.40;2.50;;;;;;;6.61;57.85;101725.00;6105687;28;20228;-67
2021/01/06 01:36:05;;;;;;;4.77;3.23;;;;;;;6.58;57.95;101729.22;6131764;28;20243;-69
2021/01/06 01:39:25;;;;;;;3.77;3.20;;;;;;;6.53;57.75;101725.66;6133247;28;21596;-68
2021/01/06 01:42:47;;;;;;;4.43;3.80;;;;;;;6.43;57.86;101730.63;6107167;29;20912;-68
2021/01/06 01:46:31;;;;;;;3.50;3.20;;;;;;;6.48;57.99;101718.66;6107102;28;20634;-68
2021/01/06 01:49:52;;;;;;;4.10;3.17;;;;;;;6.49;57.74;101724.72;6093844;29;20244;-68
2021/01/06 01:53:19;;;;;;;6.27;3.60;;;;;;;6.47;57.65;101716.03;6107097;28;20236;-67
2021/01/06 01:56:49;;;;;;;4.60;3.23;;;;;;;6.59;57.47;101710.25;6109783;28;20236;-67
2021/01/06 02:00:14;;;;;;;3.70;3.13;;;;;;;6.33;57.66;101712.28;6107608;28;20239;-68
2021/01/06 02:03:41;;;;;;;3.13;2.70;;;;;;;6.30;57.58;101703.63;6129463;28;20231;-67
2021/01/06 02:07:07;;;;;;;4.57;3.23;;;;;;;6.36;57.67;101702.88;6130152;28;20521;-68
2021/01/06 02:10:32;;;;;;;3.60;2.43;;;;;;;6.27;57.38;101703.53;6105188;28;20576;-68
2021/01/06 02:13:56;;;;;;;3.33;2.90;;;;;;;6.29;57.76;101703.56;6130072;28;20240;-67
2021/01/06 02:17:18;;;;;;;2.80;2.60;;;;;;;6.14;58.41;101692.88;6129080;28;20315;-68
2021/01/06 02:20:39;;;;;;;4.33;3.13;;;;;;;6.11;57.96;101686.78;6132478;28;20239;-68
2021/01/06 02:24:01;;;;;;;3.20;2.67;;;;;;;6.20;57.81;101680.94;6132024;28;20220;-68
2021/01/06 02:27:22;;;;;;;4.07;3.27;;;;;;;6.29;57.55;101682.88;6132110;28;20239;-68
2021/01/06 02:30:42;;;;;;;6.80;3.57;;;;;;;6.24;57.83;101682.78;6128813;28;20231;-67
2021/01/06 02:34:03;;;;;;;2.97;2.57;;;;;;;6.26;57.74;101681.09;6132348;28;20488;-67
2021/01/06 02:37:24;;;;;;;4.53;3.30;;;;;;;6.16;57.93;101675.69;6129370;28;20244;-68
2021/01/06 02:40:45;;;;;;;3.73;3.27;;;;;;;5.91;58.39;101677.66;6130948;28;23685;-67
2021/01/06 02:44:08;;;;;;;3.93;3.40;;;;;;;6.15;58.44;101674.81;6129757;28;20227;-67
2021/01/06 02:47:29;;;;;;;7.47;3.30;;;;;;;6.11;58.69;101671.28;6117484;28;20243;-67
2021/01/06 02:50:55;;;;;;;6.17;3.27;;;;;;;6.38;57.96;101669.25;6130254;28;20232;-68
2021/01/06 02:54:21;;;;;;;4.57;3.37;;;;;;;6.37;57.87;101673.56;6130271;28;20239;-68
2021/01/06 02:57:44;;;;;;;3.93;2.93;;;;;;;6.44;57.62;101661.66;6129792;28;20235;-68
2021/01/06 03:01:10;;;;;;;4.80;4.33;;;;;;;6.39;57.83;101661.53;6130162;28;20223;-67
2021/01/06 03:04:35;;;;;;;3.27;2.97;;;;;;;6.30;57.78;101656.16;6132263;28;20245;-67
2021/01/06 03:07:55;;;;;;;3.57;3.13;;;;;;;6.29;57.88;101654.41;6120555;28;20227;-68
2021/01/06 03:11:16;;;;;;;5.30;3.13;;;;;;;6.30;58.07;101638.94;6104273;28;20677;-68
2021/01/06 03:14:39;;;;;;;4.33;3.20;;;;;;;6.27;58.04;101641.44;6105379;28;20240;-67
2021/01/06 03:18:00;;;;;;;6.13;3.43;;;;;;;6.26;57.76;101646.56;6107884;28;20613;-66
2021/01/06 03:21:20;;;;;;;4.57;3.30;;;;;;;6.33;57.70;101640.72;6104837;28;20236;-68
2021/01/06 03:24:46;;;;;;;4.60;4.20;;;;;;;6.17;57.85;101642.09;6107579;28;20233;-68
2021/01/06 03:28:09;;;;;;;3.10;2.80;;;;;;;6.23;57.41;101625.84;6105678;29;20532;-67
2021/01/06 03:31:42;;;;;;;4.43;3.77;;;;;;;6.27;57.81;101630.22;6094031;28;20538;-68
2021/01/06 03:35:09;;;;;;;3.33;3.03;;;;;;;6.14;57.76;101629.06;6125199;28;20516;-67
2021/01/06 03:38:34;;;;;;;5.83;4.23;;;;;;;6.18;57.47;101624.84;6128817;28;20231;-68
2021/01/06 03:41:56;;;;;;;4.03;3.40;;;;;;;6.13;57.79;101621.28;6129495;28;20319;-67
2021/01/06 03:45:21;;;;;;;6.90;4.50;;;;;;;6.15;57.62;101617.03;6127696;28;20255;-67
2021/01/06 03:48:58;;;;;;;8.07;4.20;;;;;;;6.19;57.26;101616.25;6127312;28;20227;-68
2021/01/06 03:52:42;;;;;;;4.00;3.60;;;;;;;6.09;57.38;101600.53;6127788;28;20764;-67
2021/01/06 03:56:06;;;;;;;5.47;3.90;;;;;;;6.19;57.52;101600.75;6126207;28;20247;-68
2021/01/06 03:59:30;;;;;;;7.77;4.43;;;;;;;6.21;57.30;101592.16;6116686;28;20271;-68
2021/01/06 04:02:56;;;;;;;6.10;3.93;;;;;;;6.22;57.49;101606.88;6125399;28;20239;-68
2021/01/06 04:06:19;;;;;;;4.40;4.00;;;;;;;6.22;57.17;101599.09;6127628;28;20235;-68
2021/01/06 04:09:45;;;;;;;5.77;3.90;;;;;;;6.27;57.31;101594.00;6127257;28;20231;-68
2021/01/06 04:13:05;;;;;;;5.47;3.93;;;;;;;6.17;57.19;101592.94;6128882;28;20234;-68
2021/01/06 04:16:26;;;;;;;5.37;3.63;;;;;;;6.18;57.43;101589.50;6124080;28;20651;-68
2021/01/06 04:19:49;;;;;;;3.43;3.10;;;;;;;6.15;57.31;101586.00;6128428;28;20240;-68
2021/01/06 04:23:12;;;;;;;4.00;3.57;;;;;;;6.10;57.63;101591.94;6126433;28;20252;-67
2021/01/06 04:26:33;;;;;;;6.53;5.43;;;;;;;6.13;57.34;101580.78;6126442;28;20224;-68
2021/01/06 04:29:54;;;;;;;4.43;3.60;;;;;;;6.02;57.82;101577.97;6125434;28;20315;-68
2021/01/06 04:33:19;;;;;;;4.87;4.00;;;;;;;6.11;57.10;101573.00;6128838;28;20243;-68
2021/01/06 04:36:40;;;;;;;5.23;4.07;;;;;;;5.98;57.89;101570.97;6125644;28;20235;-68
2021/01/06 04:40:01;;;;;;;5.00;4.53;;;;;;;5.92;57.59;101563.06;6129569;28;20641;-68
2021/01/06 04:43:28;;;;;;;5.47;4.07;;;;;;;5.88;57.75;101563.84;6127147;28;20231;-68
2021/01/06 04:47:02;;;;;;;8.23;3.97;;;;;;;5.93;57.78;101559.63;6124347;28;20243;-68
2021/01/06 04:50:40;;;;;;;4.67;3.90;;;;;;;5.99;57.88;101554.66;6127748;28;20235;-68
2021/01/06 04:54:25;;;;;;;5.70;3.97;;;;;;;6.11;57.36;101551.44;6129329;28;20613;-68
2021/01/06 04:57:59;;;;;;;4.80;4.40;;;;;;;6.18;57.47;101552.44;6127414;28;20231;-68
2021/01/06 05:01:39;;;;;;;4.10;3.77;;;;;;;6.06;57.46;101542.72;6126157;28;20243;-68
2021/01/06 05:05:19;;;;;;;3.93;3.40;;;;;;;6.13;57.68;101546.28;6118323;28;20267;-68
2021/01/06 05:08:43;;;;;;;4.20;3.80;;;;;;;6.11;57.43;101539.38;6109084;29;20331;-68
2021/01/06 05:12:13;;;;;;;5.03;4.53;;;;;;;6.13;57.57;101538.53;6103058;29;20229;-68
2021/01/06 05:15:42;;;;;;;6.23;4.77;;;;;;;5.83;57.96;101524.09;6100214;28;20421;-68
2021/01/06 05:19:04;;;;;;;5.80;5.23;;;;;;;6.04;57.68;101527.16;6103909;28;20250;-67
2021/01/06 05:22:25;;;;;;;4.37;3.97;;;;;;;6.18;57.50;101529.16;6104061;28;20248;-67
2021/01/06 05:25:46;;;;;;;5.17;4.70;;;;;;;6.15;57.41;101531.69;6104293;28;20243;-68
2021/01/06 05:29:19;;;;;;;5.17;4.00;;;;;;;6.20;57.23;101519.72;6125166;28;20322;-68
2021/01/06 05:32:41;;;;;;;5.60;4.17;;;;;;;6.08;57.57;101526.38;6124824;28;20561;-68
2021/01/06 05:36:03;;;;;;;4.90;3.90;;;;;;;6.15;57.28;101522.22;6127221;28;20236;-68
2021/01/06 05:39:27;;;;;;;4.87;4.07;;;;;;;6.27;57.30;101521.59;6129767;28;20673;-68
2021/01/06 05:42:51;;;;;;;5.20;4.70;;;;;;;6.18;57.05;101521.41;6127354;28;20322;-68
2021/01/06 05:46:20;;;;;;;5.43;4.03;;;;;;;6.14;57.29;101519.59;6109413;28;20755;-68
2021/01/06 05:49:42;;;;;;;4.90;4.00;;;;;;;6.15;57.27;101516.19;6130265;28;20235;-68
2021/01/06 05:53:05;;;;;;;4.80;3.90;;;;;;;6.18;57.17;101506.75;6127291;28;20240;-67
2021/01/06 05:56:48;;;;;;;4.90;4.07;;;;;;;6.17;57.34;101514.50;6130359;28;20247;-68
2021/01/06 06:00:20;;;;;;;4.40;4.00;;;;;;;6.15;57.71;101516.19;6131168;28;20236;-68
2021/01/06 06:04:14;;;;;;;5.57;4.37;;;;;;;6.23;57.19;101504.25;6134689;28;20239;-68
2021/01/06 06:07:40;;;;;;;5.07;4.40;;;;;;;6.17;57.28;101505.00;6127641;29;20612;-68
2021/01/06 06:11:19;;;;;;;5.67;4.67;;;;;;;6.16;57.04;101504.97;6132547;28;20545;-68
2021/01/06 06:15:02;;;;;;;5.17;4.20;;;;;;;6.03;57.28;101496.97;6139033;28;20236;-68
2021/01/06 06:18:54;;;;;;;4.73;4.33;;;;;;;6.14;57.29;101493.72;6133551;28;20255;-67
2021/01/06 06:22:21;;;;;;;5.93;4.13;;;;;;;6.10;57.61;101487.63;6101142;29;20241;-68
2021/01/06 06:25:54;;;;;;;6.30;3.97;;;;;;;6.16;57.38;101497.22;6124157;28;20224;-68
2021/01/06 06:29:20;;;;;;;6.50;4.30;;;;;;;6.21;57.72;101485.25;6124216;28;20232;-67
2021/01/06 06:32:44;;;;;;;5.33;4.17;;;;;;;6.14;57.75;101494.59;6128240;28;20240;-68
2021/01/06 06:36:13;;;;;;;6.67;4.63;;;;;;;6.23;57.43;101484.44;6131189;28;20589;-68
2021/01/06 06:39:37;;;;;;;7.07;4.43;;;;;;;6.05;58.33;101484.94;6130436;28;20738;-68
2021/01/06 06:43:01;;;;;;;5.97;4.60;;;;;;;6.13;58.33;101482.53;6130701;28;21187;-68
2021/01/06 06:46:32;;;;;;;7.27;4.60;;;;;;;6.18;58.38;101480.88;6128104;28;20239;-68
2021/01/06 06:50:15;;;;;;;5.37;4.03;;;;;;;6.21;58.28;101485.25;6128076;28;20334;-67
2021/01/06 06:53:44;;;;;;;7.00;4.73;;;;;;;6.22;58.69;101481.81;6105459;28;20232;-68
2021/01/06 06:57:13;;;;;;;7.60;5.87;;;;;;;6.41;58.42;101483.91;6110864;28;20729;-67
2021/01/06 07:00:36;;;;;;;7.55;5.07;;;;;;;6.36;58.38;101482.06;6137196;28;20847;-68
2021/01/06 07:04:01;;;;;;;4.57;4.17;;;;;;;6.19;58.76;101477.47;6133043;28;20616;-67
2021/01/06 07:07:35;;;;;;;5.17;4.37;;;;;;;6.09;58.86;101481.59;6128464;28;20228;-67
2021/01/06 07:10:59;;;;;;;5.00;4.07;;;;;;;6.08;59.12;101471.19;6124696;28;20243;-67
2021/01/06 07:14:26;;;;;;;6.03;4.33;;;;;;;6.01;59.55;101477.09;6136564;28;20236;-67
2021/01/06 07:17:47;;;;;;;6.67;5.57;;;;;;;5.99;59.52;101482.25;6137201;28;20316;-68
2021/01/06 07:21:28;;;;;;;21.97;19.70;;;;;;;6.05;59.66;101479.78;6143843;28;20231;-67
2021/01/06 07:24:53;;;;;;;8.13;7.33;;;;;;;6.07;59.65;101472.94;6123785;28;20232;-67
2021/01/06 07:28:19;;;;;;;17.27;13.57;;;;;;;6.06;59.89;101471.16;6110934;28;20231;-67
2021/01/06 07:31:48;;;;;;;17.53;13.60;;;;;;;5.91;59.84;101476.00;6121149;28;20707;-67
2021/01/06 07:35:20;;;;;;;17.20;13.57;;;;;;;5.96;59.78;101479.59;6130925;28;20256;-67
2021/01/06 07:38:42;;;;;;;17.43;12.87;;;;;;;5.95;60.01;101469.16;6137510;28;20235;-67
2021/01/06 07:42:05;;;;;;;19.93;15.70;;;;;;;5.87;60.23;101471.59;6144677;28;20277;-67
2021/01/06 07:45:37;;;;;;;9.87;8.30;;;;;;;5.86;60.04;101473.31;6138619;28;20231;-67
2021/01/06 07:49:09;;;;;;;4.47;4.07;;;;;;;5.73;60.61;101473.91;6136400;28;20235;-68
2021/01/06 07:52:51;;;;;;;4.50;4.10;;;;;;;5.78;60.71;101474.88;6124185;28;20235;-68
2021/01/06 07:56:22;;;;;;;4.90;4.50;;;;;;;5.73;60.59;101469.59;6122052;29;20339;-67
2021/01/06 07:59:51;;;;;;;5.30;4.47;;;;;;;5.67;60.86;101476.38;6120135;28;20321;-67
2021/01/06 08:03:22;;;;;;;4.83;4.43;;;;;;;5.56;61.13;101473.53;6131193;28;20630;-67
2021/01/06 08:06:52;;;;;;;6.40;4.57;;;;;;;5.70;61.04;101472.13;6124899;28;20326;-67
2021/01/06 08:13:59;;;;;;;6.50;5.27;;;;;;;5.81;60.74;101469.75;6299130;27;20810;-67
2021/01/06 08:17:41;;;;;;;4.53;4.13;;;;;;;5.47;61.30;101465.59;6273585;28;20243;-66
2021/01/06 08:21:13;;;;;;;5.40;4.90;;;;;;;5.71;60.92;101475.59;6261085;28;20331;-68
2021/01/06 08:24:41;;;;;;;7.20;5.67;;;;;;;5.69;60.86;101464.34;6266473;28;21310;-68
2021/01/06 08:28:15;;;;;;;7.47;5.40;;;;;;;5.90;60.34;101457.03;6256499;28;20230;-67
2021/01/06 08:31:38;;;;;;;8.47;6.13;;;;;;;5.82;60.50;101449.97;6250087;28;20339;-67
2021/01/06 08:35:02;;;;;;;5.90;5.00;;;;;;;5.78;60.69;101448.13;6287874;28;20235;-67
2021/01/06 08:38:28;;;;;;;5.30;4.50;;;;;;;5.84;60.46;101443.13;6280706;28;20235;-67
2021/01/06 08:41:48;;;;;;;7.40;4.77;;;;;;;5.94;60.26;101445.03;6268327;28;20307;-67
2021/01/06 08:45:20;;;;;;;5.13;4.73;;;;;;;5.89;60.12;101441.47;6260634;28;20223;-67
2021/01/06 08:48:42;;;;;;;7.27;4.93;;;;;;;5.79;60.29;101443.00;6280637;28;20612;-67
2021/01/06 08:52:26;;;;;;;5.70;4.50;;;;;;;5.98;60.04;101444.28;6280751;28;20231;-67
2021/01/06 08:55:56;;;;;;;6.30;4.77;;;;;;;6.02;60.06;101442.63;6285310;28;20227;-67
2021/01/06 08:59:25;;;;;;;6.47;5.10;;;;;;;5.95;60.22;101436.47;6255862;28;20227;-67
2021/01/06 09:02:49;;;;;;;6.20;5.60;;;;;;;5.78;60.53;101432.63;6262535;28;20549;-68
2021/01/06 09:06:18;;;;;;;6.17;4.80;;;;;;;5.83;60.82;101441.38;6262315;28;20524;-67
2021/01/06 09:09:53;;;;;;;5.83;5.10;;;;;;;5.80;61.01;101430.97;6272297;28;20615;-68
2021/01/06 09:13:18;;;;;;;5.23;4.60;;;;;;;5.60;61.11;101428.81;6261141;28;20232;-67
2021/01/06 09:16:46;;;;;;;6.70;6.03;;;;;;;5.76;60.93;101429.16;6256364;28;20240;-67
2021/01/06 09:20:12;;;;;;;4.67;4.17;;;;;;;5.89;60.65;101428.56;6256117;28;20227;-67
2021/01/06 09:23:34;;;;;;;4.90;4.40;;;;;;;5.96;60.25;101427.88;6238226;28;20609;-67
2021/01/06 09:26:57;;;;;;;5.73;5.13;;;;;;;5.81;60.97;101417.19;6251283;28;20236;-67
2021/01/06 09:30:24;;;;;;;5.10;4.67;;;;;;;5.67;61.25;101412.63;6237728;28;20316;-67
2021/01/06 09:33:46;;;;;;;6.03;4.93;;;;;;;5.51;61.50;101413.16;6260682;28;21157;-68
2021/01/06 09:37:08;;;;;;;5.40;4.90;;;;;;;5.66;61.49;101410.88;6253407;28;20251;-67
2021/01/06 09:40:32;;;;;;;5.97;4.43;;;;;;;5.71;60.88;101404.09;6239636;28;20231;-67
2021/01/06 09:43:58;;;;;;;9.53;5.63;;;;;;;5.76;60.84;101408.47;6253519;28;20498;-68
2021/01/06 09:47:23;;;;;;;7.30;5.00;;;;;;;5.68;61.44;101409.22;6258648;28;20323;-67
2021/01/06 09:50:48;;;;;;;6.67;4.60;;;;;;;5.76;60.64;101401.63;6263239;28;20252;-67
2021/01/06 09:54:12;;;;;;;5.50;4.30;;;;;;;5.52;61.30;101402.84;6251796;28;20232;-67
2021/01/06 09:57:34;;;;;;;6.27;4.10;;;;;;;5.67;61.28;101397.13;6257641;28;20227;-68
2021/01/06 10:01:02;;;;;;;5.63;4.17;;;;;;;5.69;61.23;101397.16;6227754;28;20229;-67
2021/01/06 10:04:25;;;;;;;4.90;3.77;;;;;;;5.69;61.15;101398.00;6238107;28;20549;-67
2021/01/06 10:07:50;;;;;;;4.73;4.23;;;;;;;5.65;61.49;101391.03;6238808;28;20288;-66
2021/01/06 10:11:25;;;;;;;4.53;4.13;;;;;;;5.63;61.53;101387.56;6227014;28;20232;-67
2021/01/06 10:14:59;;;;;;;5.07;4.53;;;;;;;5.62;61.80;101385.84;6229843;28;20228;-68
2021/01/06 10:18:32;;;;;;;5.20;4.80;;;;;;;5.52;62.14;101369.28;6262364;28;20227;-67
2021/01/06 10:21:59;;;;;;;4.07;3.70;;;;;;;5.65;61.64;101370.38;6233416;28;20232;-67
2021/01/06 10:25:35;;;;;;;6.50;4.93;;;;;;;5.65;61.66;101369.50;6236293;28;20229;-67
2021/01/06 10:28:56;;;;;;;4.47;4.00;;;;;;;5.60;61.66;101366.81;6263133;28;20235;-67
2021/01/06 10:32:49;;;;;;;4.07;3.77;;;;;;;5.72;61.70;101355.88;6261237;28;20224;-68
2021/01/06 10:36:32;;;;;;;4.33;3.93;;;;;;;5.96;61.35;101359.78;6238282;28;20232;-68
2021/01/06 10:39:55;;;;;;;4.30;3.90;;;;;;;5.75;61.20;101350.75;6230661;28;21028;-67
2021/01/06 10:43:37;;;;;;;5.00;4.50;;;;;;;5.58;61.86;101347.81;6256398;28;20232;-67
2021/01/06 10:47:37;;;;;;;4.07;3.77;;;;;;;5.84;61.32;101340.59;6253831;28;20268;-68
2021/01/06 10:51:00;;;;;;;3.90;3.60;;;;;;;5.83;61.13;101340.56;6227236;28;20236;-67
2021/01/06 10:54:30;;;;;;;4.60;4.20;;;;;;;5.89;60.65;101327.72;6233371;28;20237;-68
2021/01/06 10:57:58;;;;;;;4.37;4.00;;;;;;;5.87;61.02;101330.31;6223946;28;20228;-68
2021/01/06 11:01:44;;;;;;;3.53;3.20;;;;;;;5.73;61.04;101322.28;6249664;28;20232;-68
2021/01/06 11:05:16;;;;;;;4.43;3.03;;;;;;;5.73;60.93;101326.59;6230362;28;20229;-67
2021/01/06 11:09:11;;;;;;;4.97;4.30;;;;;;;5.72;61.19;101312.81;6266298;28;20227;-66
2021/01/06 11:12:47;;;;;;;3.10;2.80;;;;;;;5.83;60.99;101306.94;6234065;28;20235;-68
2021/01/06 11:16:15;;;;;;;3.40;3.10;;;;;;;5.86;60.98;101301.84;6237670;28;20228;-69
2021/01/06 11:19:49;;;;;;;4.57;3.57;;;;;;;6.03;60.86;101294.41;6238777;28;20228;-68
2021/01/06 11:23:42;;;;;;;4.07;3.40;;;;;;;5.82;60.84;101292.31;6238896;28;20273;-67
2021/01/06 11:27:03;;;;;;;4.20;3.50;;;;;;;5.84;61.05;101295.78;6251300;28;20239;-67
2021/01/06 11:30:28;;;;;;;3.70;3.40;;;;;;;5.64;61.89;101280.78;6253644;28;20235;-67
2021/01/06 11:33:50;;;;;;;3.13;2.80;;;;;;;5.76;61.37;101285.31;6259169;28;20231;-68
2021/01/06 11:37:29;;;;;;;3.93;3.63;;;;;;;5.84;61.09;101269.94;6257566;28;20259;-67
2021/01/06 11:40:54;;;;;;;3.37;3.03;;;;;;;5.94;60.78;101253.72;6238793;28;20612;-68
2021/01/06 11:44:21;;;;;;;4.80;3.13;;;;;;;6.02;60.58;101257.34;6257053;28;20551;-68
2021/01/06 11:47:48;;;;;;;2.80;2.60;;;;;;;6.10;60.30;101252.28;6259927;28;20250;-67
2021/01/06 11:51:21;;;;;;;3.10;2.90;;;;;;;5.83;61.27;101255.25;6255811;28;20607;-68
2021/01/06 11:54:48;;;;;;;3.53;3.20;;;;;;;5.72;61.20;101247.34;6250356;28;20216;-68
2021/01/06 11:58:31;;;;;;;2.70;2.50;;;;;;;5.86;61.07;101230.34;6238303;28;20259;-67
2021/01/06 12:02:12;;;;;;;2.90;2.60;;;;;;;5.93;60.96;101228.72;6250656;28;20220;-67
2021/01/06 12:05:36;;;;;;;4.03;3.70;;;;;;;5.86;60.76;101229.47;6246474;28;20319;-67
2021/01/06 12:09:32;;;;;;;3.67;3.37;;;;;;;5.81;60.78;101220.75;6248617;28;20231;-67
2021/01/06 12:13:04;;;;;;;3.13;2.90;;;;;;;5.72;61.16;101206.84;6262593;28;20231;-67
2021/01/06 12:16:37;;;;;;;3.43;3.23;;;;;;;5.70;61.54;101213.69;6256442;28;20231;-67
2021/01/06 12:20:03;;;;;;;3.17;2.70;;;;;;;5.85;60.96;101205.31;6261114;28;20323;-67
2021/01/06 12:23:38;;;;;;;3.17;2.90;;;;;;;5.99;60.41;101210.78;6253880;28;20235;-68
2021/01/06 12:27:02;;;;;;;3.07;2.83;;;;;;;5.88;60.43;101196.75;6237238;28;20512;-67
2021/01/06 12:30:37;;;;;;;13.67;12.27;;;;;;;5.92;60.79;101193.38;6252868;28;20216;-68
2021/01/06 12:34:07;;;;;;;7.17;6.47;;;;;;;5.85;61.05;101187.22;6265093;28;20227;-67
2021/01/06 12:37:30;;;;;;;2.90;2.70;;;;;;;5.65;61.04;101184.31;6258246;28;20644;-67
2021/01/06 12:40:59;;;;;;;2.63;2.43;;;;;;;5.74;61.34;101173.28;6254754;28;20240;-67
2021/01/06 12:44:22;;;;;;;2.80;2.60;;;;;;;5.64;61.75;101168.78;6262245;28;20223;-67
2021/01/06 12:47:52;;;;;;;2.90;2.70;;;;;;;5.72;61.31;101170.66;6259043;28;20228;-67
2021/01/06 12:51:20;;;;;;;6.03;4.30;;;;;;;5.64;61.44;101172.25;6250832;28;20227;-68
2021/01/06 12:54:44;;;;;;;2.83;2.63;;;;;;;5.54;61.76;101172.91;6257463;28;20227;-67
2021/01/06 12:58:11;;;;;;;2.53;2.33;;;;;;;5.58;61.73;101169.53;6259486;28;20231;-68
2021/01/06 13:01:43;;;;;;;2.93;2.63;;;;;;;5.65;61.68;101160.19;6244876;28;20243;-67
2021/01/06 13:05:20;;;;;;;3.80;3.47;;;;;;;5.57;61.57;101160.06;6256329;28;20228;-67
2021/01/06 13:08:50;;;;;;;3.40;2.80;;;;;;;5.58;61.58;101150.59;6258452;28;20216;-68
2021/01/06 13:12:33;;;;;;;3.50;3.20;;;;;;;5.46;62.00;101156.44;6261959;28;20228;-67
2021/01/06 13:15:58;;;;;;;3.80;3.20;;;;;;;5.48;61.93;101149.56;6260482;28;20228;-68
2021/01/06 13:19:25;;;;;;;3.23;3.00;;;;;;;5.60;61.79;101148.91;6250163;28;20228;-67
2021/01/06 13:22:56;;;;;;;3.07;2.87;;;;;;;5.50;61.96;101147.88;6257798;28;20676;-67
2021/01/06 13:26:29;;;;;;;3.00;2.80;;;;;;;5.59;61.70;101142.88;6254391;28;20224;-68
2021/01/06 13:29:56;;;;;;;3.83;3.53;;;;;;;5.60;61.79;101138.56;6245787;28;20216;-68
2021/01/06 13:33:30;;;;;;;4.13;2.77;;;;;;;5.63;61.55;101141.22;6254592;28;20631;-67
2021/01/06 13:36:56;;;;;;;3.57;2.93;;;;;;;5.53;61.95;101147.94;6262058;28;20664;-66
2021/01/06 13:40:21;;;;;;;2.70;2.50;;;;;;;5.52;61.67;101144.50;6266155;28;20576;-67
2021/01/06 13:43:54;;;;;;;3.33;3.03;;;;;;;5.52;61.87;101130.69;6258618;28;20603;-67
2021/01/06 13:47:19;;;;;;;4.10;3.17;;;;;;;5.53;61.85;101135.88;6265189;28;20546;-67
2021/01/06 13:50:48;;;;;;;3.33;3.03;;;;;;;5.64;61.62;101140.34;6260247;28;20224;-67
2021/01/06 13:54:23;;;;;;;2.63;2.43;;;;;;;5.59;61.42;101139.44;6261015;28;20235;-68
2021/01/06 13:57:57;;;;;;;2.53;2.37;;;;;;;5.64;61.62;101136.09;6271233;28;20243;-66
2021/01/06 14:01:38;;;;;;;2.30;2.10;;;;;;;5.46;62.08;101131.47;6245039;28;20621;-68
2021/01/06 14:05:03;;;;;;;2.77;2.57;;;;;;;5.33;62.07;101134.66;6256780;28;20224;-73
2021/01/06 14:08:29;;;;;;;2.10;1.90;;;;;;;5.50;62.11;101132.38;6263247;28;20247;-67
2021/01/06 14:12:42;;;;;;;2.47;2.27;;;;;;;5.52;61.92;101135.84;6264136;28;20270;-68
2021/01/06 14:16:31;;;;;;;2.53;2.33;;;;;;;5.47;62.09;101132.34;6259816;28;20228;-65
2021/01/06 14:20:01;;;;;;;2.67;2.40;;;;;;;5.37;62.53;101126.16;6263209;28;20223;-66
2021/01/06 14:23:29;;;;;;;3.60;3.27;;;;;;;5.44;61.85;101124.53;6251644;28;20220;-66
2021/01/06 14:26:52;;;;;;;2.80;2.57;;;;;;;5.45;61.96;101131.47;6255750;28;20617;-65
2021/01/06 14:30:20;;;;;;;2.83;2.63;;;;;;;5.29;61.96;101119.97;6261207;28;20239;-65
2021/01/06 14:33:47;;;;;;;8.27;7.47;;;;;;;5.36;62.31;101123.53;6260807;28;20247;-66
2021/01/06 14:37:17;;;;;;;9.73;8.83;;;;;;;5.47;61.92;101125.47;6258539;28;20257;-66
2021/01/06 14:40:43;;;;;;;4.30;4.00;;;;;;;5.51;61.63;101121.22;6263320;28;20634;-67
2021/01/06 14:44:23;;;;;;;5.87;5.27;;;;;;;5.59;61.45;101124.78;6257285;28;20614;-66
2021/01/06 14:47:59;;;;;;;3.80;3.50;;;;;;;5.48;61.78;101122.00;6260338;28;20548;-66
2021/01/06 14:51:44;;;;;;;2.57;2.00;;;;;;;5.40;61.84;101115.00;6259324;28;20613;-66
2021/01/06 14:55:15;;;;;;;2.00;1.90;;;;;;;5.41;61.81;101111.56;6243319;28;20318;-66
2021/01/06 14:58:43;;;;;;;2.33;2.13;;;;;;;5.52;61.52;101110.03;6257230;28;20228;-65
2021/01/06 15:02:24;;;;;;;2.35;2.25;;;;;;;5.48;61.85;101118.56;6255262;28;20756;-67
2021/01/06 15:05:48;;;;;;;2.63;2.43;;;;;;;5.48;61.92;101111.69;6257973;28;20236;-66
2021/01/06 15:09:27;;;;;;;2.20;2.10;;;;;;;5.55;61.67;101110.09;6254325;28;20760;-66
2021/01/06 15:12:52;;;;;;;2.27;2.07;;;;;;;5.70;61.49;101112.91;6261049;28;20239;-66
2021/01/06 15:16:16;;;;;;;2.10;2.00;;;;;;;5.71;61.02;101098.28;6266175;28;20652;-65
2021/01/06 15:19:37;;;;;;;19.07;17.17;;;;;;;5.64;61.30;101099.91;6265763;28;20231;-66
2021/01/06 15:23:01;;;;;;;5.57;4.87;;;;;;;5.61;61.33;101099.84;6264319;28;20539;-66
2021/01/06 15:26:27;;;;;;;2.67;2.47;;;;;;;5.65;61.22;101099.03;6265521;28;20235;-66
2021/01/06 15:29:53;;;;;;;2.63;2.40;;;;;;;5.60;61.46;101092.94;6240767;28;20498;-66
2021/01/06 15:33:26;;;;;;;3.93;2.57;;;;;;;5.62;60.96;101096.44;6265839;28;20239;-66
2021/01/06 15:36:47;;;;;;;2.43;2.20;;;;;;;5.21;61.96;101088.84;6262826;28;20231;-65
2021/01/06 15:40:21;;;;;;;2.20;2.00;;;;;;;5.31;61.96;101093.34;6265043;28;20232;-65
2021/01/06 15:43:47;;;;;;;2.07;1.93;;;;;;;5.27;62.29;101088.09;6266271;28;20314;-66
2021/01/06 15:47:18;;;;;;;1.90;1.80;;;;;;;5.40;61.57;101084.00;6259833;28;20589;-66
2021/01/06 15:50:38;;;;;;;2.83;2.67;;;;;;;5.28;62.22;101088.13;6266786;28;20231;-65
2021/01/06 15:54:03;;;;;;;2.17;1.97;;;;;;;5.35;61.98;101080.47;6260669;28;20606;-65
2021/01/06 15:57:27;;;;;;;2.20;2.00;;;;;;;5.36;62.04;101087.38;6242406;28;20232;-66
2021/01/06 16:00:50;;;;;;;2.23;2.03;;;;;;;5.41;61.88;101088.31;6263550;28;20219;-66
2021/01/06 16:04:12;;;;;;;3.57;3.27;;;;;;;5.35;61.63;101077.88;6244329;28;20745;-66
2021/01/06 16:07:33;;;;;;;2.37;2.17;;;;;;;5.26;61.84;101087.22;6244742;28;20231;-65
2021/01/06 16:10:57;;;;;;;2.83;2.63;;;;;;;5.13;62.59;101075.81;6266358;28;20314;-66
2021/01/06 16:14:19;;;;;;;3.03;2.83;;;;;;;5.15;62.11;101073.25;6260463;28;20608;-66
2021/01/06 16:17:42;;;;;;;2.00;1.90;;;;;;;5.10;62.53;101074.91;6264881;28;20604;-66
2021/01/06 16:21:07;;;;;;;2.07;1.97;;;;;;;4.75;63.13;101077.72;6261468;28;20614;-66
2021/01/06 16:24:31;;;;;;;2.60;2.40;;;;;;;5.01;62.70;101069.56;6265982;28;20228;-66